sensor_id;sensor_type;location;lat;lon;timestamp;pressure;altitude;pressure_sealevel;temperature;humidity
48622;BME280;34421;48.944;9.460;2022-12-08T00:01:43;98151.19;;;2.93;70.93
48622;BME280;34421;48.944;9.460;2022-12-08T00:04:09;98146.09;;;2.91;70.90
48622;BME280;34421;48.944;9.460;2022-12-08T00:06:35;98143.63;;;2.90;71.40
48622;BME280;34421;48.944;9.460;2022-12-08T00:09:23;98143.50;;;2.83;71.41
48622;BME280;34421;48.944;9.460;2022-12-08T00:14:26;98129.69;;;2.81;71.76
48622;BME280;34421;48.944;9.460;2022-12-08T00:16:52;98137.75;;;2.80;70.97
48622;BME280;34421;48.944;9.460;2022-12-08T00:19:18;98134.28;;;2.79;71.26
48622;BME280;34421;48.944;9.460;2022-12-08T00:21:44;98141.84;;;2.82;71.12
48622;BME280;34421;48.944;9.460;2022-12-08T00:24:09;98139.72;;;2.86;71.70
48622;BME280;34421;48.944;9.460;2022-12-08T00:26:35;98139.19;;;2.90;71.64
48622;BME280;34421;48.944;9.460;2022-12-08T00:29:01;98135.63;;;2.83;70.61
48622;BME280;34421;48.944;9.460;2022-12-08T00:31:26;98145.28;;;2.91;71.25
48622;BME280;34421;48.944;9.460;2022-12-08T00:33:51;98140.19;;;2.97;70.80
48622;BME280;34421;48.944;9.460;2022-12-08T00:36:17;98132.91;;;3.00;71.16
48622;BME280;34421;48.944;9.460;2022-12-08T00:38:42;98127.97;;;3.05;71.84
48622;BME280;34421;48.944;9.460;2022-12-08T00:41:13;98128.91;;;3.12;72.17
48622;BME280;34421;48.944;9.460;2022-12-08T00:43:39;98136.97;;;3.18;72.11
48622;BME280;34421;48.944;9.460;2022-12-08T00:46:04;98129.88;;;3.19;71.48
48622;BME280;34421;48.944;9.460;2022-12-08T00:48:30;98121.00;;;3.20;71.60
48622;BME280;34421;48.944;9.460;2022-12-08T00:50:55;98122.28;;;3.24;72.13
48622;BME280;34421;48.944;9.460;2022-12-08T00:53:24;98118.50;;;3.27;72.50
48622;BME280;34421;48.944;9.460;2022-12-08T00:55:49;98118.63;;;3.33;72.46
48622;BME280;34421;48.944;9.460;2022-12-08T00:58:14;98118.28;;;3.36;71.60
48622;BME280;34421;48.944;9.460;2022-12-08T01:00:40;98119.91;;;3.37;72.08
48622;BME280;34421;48.944;9.460;2022-12-08T01:03:09;98111.22;;;3.37;71.76
48622;BME280;34421;48.944;9.460;2022-12-08T01:05:34;98111.38;;;3.35;71.88
48622;BME280;34421;48.944;9.460;2022-12-08T01:07:59;98104.28;;;3.36;72.01
48622;BME280;34421;48.944;9.460;2022-12-08T01:10:24;98102.50;;;3.36;71.12
48622;BME280;34421;48.944;9.460;2022-12-08T01:12:50;98111.03;;;3.38;72.01
48622;BME280;34421;48.944;9.460;2022-12-08T01:15:15;98105.59;;;3.40;71.52
48622;BME280;34421;48.944;9.460;2022-12-08T01:17:40;98106.75;;;3.37;71.89
48622;BME280;34421;48.944;9.460;2022-12-08T01:20:06;98108.22;;;3.40;71.88
48622;BME280;34421;48.944;9.460;2022-12-08T01:22:33;98105.41;;;3.41;72.28
48622;BME280;34421;48.944;9.460;2022-12-08T01:24:59;98098.34;;;3.42;72.69
48622;BME280;34421;48.944;9.460;2022-12-08T01:27:24;98103.78;;;3.40;71.71
48622;BME280;34421;48.944;9.460;2022-12-08T01:29:49;98107.94;;;3.35;72.76
48622;BME280;34421;48.944;9.460;2022-12-08T01:32:15;98105.81;;;3.30;71.56
48622;BME280;34421;48.944;9.460;2022-12-08T01:34:41;98113.06;;;3.28;71.65
48622;BME280;34421;48.944;9.460;2022-12-08T01:37:06;98107.16;;;3.26;72.75
48622;BME280;34421;48.944;9.460;2022-12-08T01:39:32;98111.59;;;3.26;73.07
48622;BME280;34421;48.944;9.460;2022-12-08T01:41:57;98112.28;;;3.19;72.35
48622;BME280;34421;48.944;9.460;2022-12-08T01:46:48;98106.94;;;3.05;71.61
48622;BME280;34421;48.944;9.460;2022-12-08T01:49:23;98110.25;;;2.99;72.88
48622;BME280;34421;48.944;9.460;2022-12-08T01:54:28;98097.13;;;2.90;72.32
48622;BME280;34421;48.944;9.460;2022-12-08T01:57:11;98097.66;;;2.86;71.49
48622;BME280;34421;48.944;9.460;2022-12-08T01:59:40;98101.78;;;2.80;71.77
48622;BME280;34421;48.944;9.460;2022-12-08T02:02:08;98098.81;;;2.75;71.59
48622;BME280;34421;48.944;9.460;2022-12-08T02:04:34;98096.34;;;2.73;71.96
48622;BME280;34421;48.944;9.460;2022-12-08T02:07:01;98093.91;;;2.72;71.37
48622;BME280;34421;48.944;9.460;2022-12-08T02:09:26;98095.72;;;2.71;72.36
48622;BME280;34421;48.944;9.460;2022-12-08T02:11:53;98083.25;;;2.65;72.37
48622;BME280;34421;48.944;9.460;2022-12-08T02:14:21;98086.03;;;2.64;71.94
48622;BME280;34421;48.944;9.460;2022-12-08T02:39:40;98062.13;;;2.34;72.27
48622;BME280;34421;48.944;9.460;2022-12-08T02:42:20;98060.03;;;2.30;71.60
48622;BME280;34421;48.944;9.460;2022-12-08T02:44:57;98053.63;;;2.24;71.77
48622;BME280;34421;48.944;9.460;2022-12-08T02:47:26;98057.56;;;2.20;72.00
48622;BME280;34421;48.944;9.460;2022-12-08T02:49:54;98059.56;;;2.18;71.90
48622;BME280;34421;48.944;9.460;2022-12-08T02:54:52;98056.41;;;2.22;72.12
48622;BME280;34421;48.944;9.460;2022-12-08T03:00:08;98050.53;;;2.20;71.79
48622;BME280;34421;48.944;9.460;2022-12-08T03:05:58;98032.31;;;2.11;71.79
48622;BME280;34421;48.944;9.460;2022-12-08T03:08:50;98034.31;;;2.09;71.46
48622;BME280;34421;48.944;9.460;2022-12-08T03:13:59;98029.72;;;1.94;71.61
48622;BME280;34421;48.944;9.460;2022-12-08T03:16:28;98032.50;;;1.93;71.64
48622;BME280;34421;48.944;9.460;2022-12-08T03:19:02;98027.56;;;1.98;71.18
48622;BME280;34421;48.944;9.460;2022-12-08T03:21:32;98032.81;;;1.98;71.51
48622;BME280;34421;48.944;9.460;2022-12-08T03:24:01;98031.34;;;1.95;71.58
48622;BME280;34421;48.944;9.460;2022-12-08T03:26:42;98029.22;;;1.91;72.15
48622;BME280;34421;48.944;9.460;2022-12-08T03:29:10;98031.69;;;1.92;71.64
48622;BME280;34421;48.944;9.460;2022-12-08T03:31:38;98027.44;;;1.91;71.46
48622;BME280;34421;48.944;9.460;2022-12-08T03:34:05;98026.44;;;1.92;71.55
48622;BME280;34421;48.944;9.460;2022-12-08T03:36:32;98013.63;;;1.89;71.66
48622;BME280;34421;48.944;9.460;2022-12-08T03:38:57;98011.34;;;1.86;71.38
48622;BME280;34421;48.944;9.460;2022-12-08T03:41:23;98008.06;;;1.84;71.59
48622;BME280;34421;48.944;9.460;2022-12-08T03:43:50;97996.91;;;1.82;71.85
48622;BME280;34421;48.944;9.460;2022-12-08T03:46:17;97998.88;;;1.80;71.77
48622;BME280;34421;48.944;9.460;2022-12-08T03:48:43;98001.03;;;1.76;71.54
48622;BME280;34421;48.944;9.460;2022-12-08T03:51:08;97994.97;;;1.76;71.71
48622;BME280;34421;48.944;9.460;2022-12-08T03:53:34;98000.38;;;1.74;71.21
48622;BME280;34421;48.944;9.460;2022-12-08T03:55:59;97991.81;;;1.72;71.32
48622;BME280;34421;48.944;9.460;2022-12-08T03:58:24;97991.34;;;1.69;71.16
48622;BME280;34421;48.944;9.460;2022-12-08T04:00:50;97986.75;;;1.71;71.62
48622;BME280;34421;48.944;9.460;2022-12-08T04:03:15;97989.72;;;1.68;71.32
48622;BME280;34421;48.944;9.460;2022-12-08T04:05:40;97991.03;;;1.64;71.42
48622;BME280;34421;48.944;9.460;2022-12-08T04:08:06;97986.28;;;1.59;71.41
48622;BME280;34421;48.944;9.460;2022-12-08T04:10:31;97990.72;;;1.58;71.11
48622;BME280;34421;48.944;9.460;2022-12-08T04:12:57;97994.97;;;1.59;71.05
48622;BME280;34421;48.944;9.460;2022-12-08T04:15:22;97987.75;;;1.62;71.51
48622;BME280;34421;48.944;9.460;2022-12-08T04:17:47;97987.41;;;1.65;71.03
48622;BME280;34421;48.944;9.460;2022-12-08T04:20:13;97987.41;;;1.65;70.84
48622;BME280;34421;48.944;9.460;2022-12-08T04:22:38;97981.19;;;1.66;70.81
48622;BME280;34421;48.944;9.460;2022-12-08T04:25:04;97981.19;;;1.66;70.97
48622;BME280;34421;48.944;9.460;2022-12-08T04:27:29;97979.56;;;1.65;71.00
48622;BME280;34421;48.944;9.460;2022-12-08T04:29:54;97976.25;;;1.63;71.18
48622;BME280;34421;48.944;9.460;2022-12-08T04:32:20;97981.19;;;1.57;70.97
48622;BME280;34421;48.944;9.460;2022-12-08T04:34:45;97984.13;;;1.54;70.81
48622;BME280;34421;48.944;9.460;2022-12-08T04:37:10;97980.22;;;1.50;71.38
48622;BME280;34421;48.944;9.460;2022-12-08T04:39:36;97978.56;;;1.49;70.93
48622;BME280;34421;48.944;9.460;2022-12-08T04:42:01;97983.66;;;1.51;70.80
48622;BME280;34421;48.944;9.460;2022-12-08T04:44:26;97977.59;;;1.50;70.92
48622;BME280;34421;48.944;9.460;2022-12-08T04:46:52;97976.63;;;1.43;70.94
48622;BME280;34421;48.944;9.460;2022-12-08T04:49:17;97978.91;;;1.38;71.12
48622;BME280;34421;48.944;9.460;2022-12-08T04:51:42;97973.66;;;1.38;70.63
48622;BME280;34421;48.944;9.460;2022-12-08T04:54:08;97974.66;;;1.37;70.97
48622;BME280;34421;48.944;9.460;2022-12-08T04:56:33;97962.69;;;1.34;70.80
48622;BME280;34421;48.944;9.460;2022-12-08T04:58:58;97967.09;;;1.34;70.70
48622;BME280;34421;48.944;9.460;2022-12-08T05:01:23;97964.63;;;1.32;70.68
48622;BME280;34421;48.944;9.460;2022-12-08T05:03:49;97968.41;;;1.30;71.13
48622;BME280;34421;48.944;9.460;2022-12-08T05:06:14;97969.06;;;1.32;70.61
48622;BME280;34421;48.944;9.460;2022-12-08T05:08:41;97965.78;;;1.30;70.95
48622;BME280;34421;48.944;9.460;2022-12-08T05:11:08;97963.16;;;1.22;71.13
48622;BME280;34421;48.944;9.460;2022-12-08T05:13:34;97964.13;;;1.21;71.03
48622;BME280;34421;48.944;9.460;2022-12-08T05:16:04;97953.50;;;1.22;70.50
48622;BME280;34421;48.944;9.460;2022-12-08T05:18:30;97960.53;;;1.22;70.94
48622;BME280;34421;48.944;9.460;2022-12-08T05:20:55;97962.34;;;1.21;71.05
48622;BME280;34421;48.944;9.460;2022-12-08T05:23:21;97960.69;;;1.20;71.06
48622;BME280;34421;48.944;9.460;2022-12-08T05:25:46;97962.50;;;1.20;70.93
48622;BME280;34421;48.944;9.460;2022-12-08T05:28:11;97966.28;;;1.17;70.64
48622;BME280;34421;48.944;9.460;2022-12-08T05:30:37;97966.09;;;1.19;70.80
48622;BME280;34421;48.944;9.460;2022-12-08T05:33:02;97962.84;;;1.17;70.44
48622;BME280;34421;48.944;9.460;2022-12-08T05:35:27;97963.47;;;1.19;70.64
48622;BME280;34421;48.944;9.460;2022-12-08T05:37:52;97961.69;;;1.19;70.73
48622;BME280;34421;48.944;9.460;2022-12-08T05:40:18;97956.28;;;1.21;70.63
48622;BME280;34421;48.944;9.460;2022-12-08T05:42:43;97959.22;;;1.26;70.34
48622;BME280;34421;48.944;9.460;2022-12-08T05:45:09;97966.91;;;1.27;70.73
48622;BME280;34421;48.944;9.460;2022-12-08T05:47:34;97965.63;;;1.23;70.31
48622;BME280;34421;48.944;9.460;2022-12-08T05:50:00;97956.44;;;1.19;70.60
48622;BME280;34421;48.944;9.460;2022-12-08T05:52:25;97957.91;;;1.22;70.33
48622;BME280;34421;48.944;9.460;2022-12-08T05:54:50;97952.66;;;1.22;70.12
48622;BME280;34421;48.944;9.460;2022-12-08T05:57:19;97947.09;;;1.25;70.61
48622;BME280;34421;48.944;9.460;2022-12-08T05:59:44;97944.13;;;1.28;70.87
48622;BME280;34421;48.944;9.460;2022-12-08T06:02:09;97955.28;;;1.30;70.60
48622;BME280;34421;48.944;9.460;2022-12-08T06:04:35;97950.03;;;1.30;70.80
48622;BME280;34421;48.944;9.460;2022-12-08T06:07:00;97956.28;;;1.29;70.63
48622;BME280;34421;48.944;9.460;2022-12-08T06:09:25;97960.53;;;1.22;70.62
48622;BME280;34421;48.944;9.460;2022-12-08T06:11:51;97950.34;;;1.19;70.74
48622;BME280;34421;48.944;9.460;2022-12-08T06:14:16;97957.41;;;1.18;70.75
48622;BME280;34421;48.944;9.460;2022-12-08T06:16:41;97950.53;;;1.17;70.46
48622;BME280;34421;48.944;9.460;2022-12-08T06:19:07;97953.16;;;1.17;70.33
48622;BME280;34421;48.944;9.460;2022-12-08T06:21:32;97952.03;;;1.20;70.32
48622;BME280;34421;48.944;9.460;2022-12-08T06:23:57;97941.34;;;1.21;70.43
48622;BME280;34421;48.944;9.460;2022-12-08T06:26:23;97944.16;;;1.20;70.63
48622;BME280;34421;48.944;9.460;2022-12-08T06:28:49;97952.66;;;1.22;70.67
48622;BME280;34421;48.944;9.460;2022-12-08T06:31:19;97948.06;;;1.24;70.58
48622;BME280;34421;48.944;9.460;2022-12-08T06:33:45;97955.78;;;1.25;70.63
48622;BME280;34421;48.944;9.460;2022-12-08T06:36:13;97965.78;;;1.30;70.02
48622;BME280;34421;48.944;9.460;2022-12-08T06:38:38;97953.66;;;1.29;70.40
48622;BME280;34421;48.944;9.460;2022-12-08T06:41:04;97957.09;;;1.29;70.06
48622;BME280;34421;48.944;9.460;2022-12-08T06:43:30;97953.66;;;1.29;70.11
48622;BME280;34421;48.944;9.460;2022-12-08T06:45:55;97962.19;;;1.31;70.20
48622;BME280;34421;48.944;9.460;2022-12-08T06:48:20;97950.03;;;1.30;70.19
48622;BME280;34421;48.944;9.460;2022-12-08T06:50:46;97958.25;;;1.27;69.94
48622;BME280;34421;48.944;9.460;2022-12-08T06:53:12;97965.28;;;1.26;70.61
48622;BME280;34421;48.944;9.460;2022-12-08T06:55:51;97967.25;;;1.24;70.41
48622;BME280;34421;48.944;9.460;2022-12-08T06:58:17;97969.22;;;1.22;70.58
48622;BME280;34421;48.944;9.460;2022-12-08T07:00:43;97962.66;;;1.18;70.27
48622;BME280;34421;48.944;9.460;2022-12-08T07:03:09;97967.09;;;1.18;70.31
48622;BME280;34421;48.944;9.460;2022-12-08T07:05:36;97961.50;;;1.21;70.47
48622;BME280;34421;48.944;9.460;2022-12-08T07:08:02;97965.75;;;1.22;70.42
48622;BME280;34421;48.944;9.460;2022-12-08T07:10:27;97959.88;;;1.20;70.33
48622;BME280;34421;48.944;9.460;2022-12-08T07:12:53;97960.53;;;1.13;70.14
48622;BME280;34421;48.944;9.460;2022-12-08T07:15:18;97962.81;;;1.08;69.58
48622;BME280;34421;48.944;9.460;2022-12-08T07:17:44;97964.78;;;1.06;70.21
48622;BME280;34421;48.944;9.460;2022-12-08T07:20:09;97956.28;;;1.04;69.54
48622;BME280;34421;48.944;9.460;2022-12-08T07:22:35;97965.28;;;1.02;70.18
48622;BME280;34421;48.944;9.460;2022-12-08T07:25:00;97958.56;;;0.99;70.14
48622;BME280;34421;48.944;9.460;2022-12-08T07:27:25;97957.56;;;1.00;70.16
48622;BME280;34421;48.944;9.460;2022-12-08T07:29:51;97965.44;;;1.00;70.14
48622;BME280;34421;48.944;9.460;2022-12-08T07:32:16;97961.66;;;1.03;69.97
48622;BME280;34421;48.944;9.460;2022-12-08T07:34:41;97965.44;;;1.00;70.17
48622;BME280;34421;48.944;9.460;2022-12-08T07:37:07;97967.41;;;0.98;70.24
48622;BME280;34421;48.944;9.460;2022-12-08T07:39:32;97968.53;;;0.96;70.10
48622;BME280;34421;48.944;9.460;2022-12-08T07:41:58;97967.56;;;0.97;69.52
48622;BME280;34421;48.944;9.460;2022-12-08T07:44:23;97964.63;;;1.00;69.19
48622;BME280;34421;48.944;9.460;2022-12-08T07:46:48;97966.75;;;1.04;69.74
48622;BME280;34421;48.944;9.460;2022-12-08T07:49:14;97963.63;;;1.09;69.70
48622;BME280;34421;48.944;9.460;2022-12-08T07:51:39;97970.19;;;1.13;69.16
48622;BME280;34421;48.944;9.460;2022-12-08T07:54:04;97965.47;;;1.17;69.65
48622;BME280;34421;48.944;9.460;2022-12-08T07:56:36;97967.56;;;1.21;69.11
48622;BME280;34421;48.944;9.460;2022-12-08T07:59:01;97966.09;;;1.27;69.28
48622;BME280;34421;48.944;9.460;2022-12-08T08:01:29;97967.91;;;1.34;69.48
48622;BME280;34421;48.944;9.460;2022-12-08T08:03:56;97957.59;;;1.41;68.91
48622;BME280;34421;48.944;9.460;2022-12-08T08:06:22;97958.88;;;1.45;69.33
48622;BME280;34421;48.944;9.460;2022-12-08T08:08:48;97960.03;;;1.51;69.45
48622;BME280;34421;48.944;9.460;2022-12-08T08:11:14;97956.25;;;1.53;69.63
48622;BME280;34421;48.944;9.460;2022-12-08T08:13:39;97953.97;;;1.58;69.65
48622;BME280;34421;48.944;9.460;2022-12-08T08:16:06;97951.50;;;1.65;69.23
48622;BME280;34421;48.944;9.460;2022-12-08T08:18:33;97946.41;;;1.72;69.43
48622;BME280;34421;48.944;9.460;2022-12-08T08:20:58;97955.25;;;1.79;69.66
48622;BME280;34421;48.944;9.460;2022-12-08T08:23:24;97959.84;;;1.85;69.33
48622;BME280;34421;48.944;9.460;2022-12-08T08:25:49;97945.03;;;1.92;69.65
48622;BME280;34421;48.944;9.460;2022-12-08T08:28:14;97940.59;;;2.01;69.62
48622;BME280;34421;48.944;9.460;2022-12-08T08:30:40;97950.88;;;2.11;69.78
48622;BME280;34421;48.944;9.460;2022-12-08T08:33:06;97942.34;;;2.17;69.64
48622;BME280;34421;48.944;9.460;2022-12-08T08:35:32;97942.31;;;2.25;69.59
48622;BME280;34421;48.944;9.460;2022-12-08T08:37:58;97941.81;;;2.30;69.86
48622;BME280;34421;48.944;9.460;2022-12-08T08:40:23;97945.22;;;2.38;70.10
48622;BME280;34421;48.944;9.460;2022-12-08T08:42:49;97942.53;;;2.46;69.81
48622;BME280;34421;48.944;9.460;2022-12-08T08:45:14;97942.50;;;2.55;69.84
48622;BME280;34421;48.944;9.460;2022-12-08T08:47:39;97945.44;;;2.60;70.13
48622;BME280;34421;48.944;9.460;2022-12-08T08:50:05;97942.13;;;2.66;70.13
48622;BME280;34421;48.944;9.460;2022-12-08T08:52:31;97944.22;;;2.70;69.87
48622;BME280;34421;48.944;9.460;2022-12-08T08:54:56;97943.06;;;2.73;70.04
48622;BME280;34421;48.944;9.460;2022-12-08T08:57:21;97947.16;;;2.76;70.18
48622;BME280;34421;48.944;9.460;2022-12-08T08:59:47;97950.91;;;2.81;69.95
48622;BME280;34421;48.944;9.460;2022-12-08T09:02:16;97940.84;;;2.85;70.43
48622;BME280;34421;48.944;9.460;2022-12-08T09:04:42;97933.78;;;2.85;70.92
48622;BME280;34421;48.944;9.460;2022-12-08T09:07:07;97933.78;;;2.85;70.16
48622;BME280;34421;48.944;9.460;2022-12-08T09:09:33;97924.25;;;2.84;70.71
48622;BME280;34421;48.944;9.460;2022-12-08T09:11:58;97929.00;;;2.89;70.44
48622;BME280;34421;48.944;9.460;2022-12-08T09:14:23;97929.78;;;2.97;71.27
48622;BME280;34421;48.944;9.460;2022-12-08T09:16:49;97921.81;;;3.06;70.87
48622;BME280;34421;48.944;9.460;2022-12-08T09:19:14;97922.63;;;3.06;70.39
48622;BME280;34421;48.944;9.460;2022-12-08T09:21:40;97925.44;;;3.05;71.35
48622;BME280;34421;48.944;9.460;2022-12-08T09:24:05;97927.38;;;3.11;70.41
48622;BME280;34421;48.944;9.460;2022-12-08T09:26:32;97928.13;;;3.19;71.13
48622;BME280;34421;48.944;9.460;2022-12-08T09:28:58;97925.44;;;3.28;71.29
48622;BME280;34421;48.944;9.460;2022-12-08T09:31:24;97931.44;;;3.36;71.30
48622;BME280;34421;48.944;9.460;2022-12-08T09:33:49;97927.63;;;3.39;71.16
48622;BME280;34421;48.944;9.460;2022-12-08T09:36:18;97929.28;;;3.40;71.28
48622;BME280;34421;48.944;9.460;2022-12-08T09:38:44;97923.47;;;3.45;70.53
48622;BME280;34421;48.944;9.460;2022-12-08T09:46:36;97913.59;;;3.47;71.25
48622;BME280;34421;48.944;9.460;2022-12-08T09:49:03;97915.56;;;3.45;71.92
48622;BME280;34421;48.944;9.460;2022-12-08T09:51:36;97918.03;;;3.46;72.57
48622;BME280;34421;48.944;9.460;2022-12-08T09:54:07;97906.16;;;3.50;72.48
48622;BME280;34421;48.944;9.460;2022-12-08T09:56:36;97908.25;;;3.55;72.55
48622;BME280;34421;48.944;9.460;2022-12-08T10:01:43;97888.75;;;3.64;71.11
48622;BME280;34421;48.944;9.460;2022-12-08T10:04:35;97889.19;;;3.68;72.35
48622;BME280;34421;48.944;9.460;2022-12-08T10:09:51;97885.75;;;3.82;70.98
48622;BME280;34421;48.944;9.460;2022-12-08T10:15:39;97877.56;;;3.92;71.06
48622;BME280;34421;48.944;9.460;2022-12-08T10:18:10;97873.22;;;3.99;71.27
48622;BME280;34421;48.944;9.460;2022-12-08T10:20:40;97874.13;;;4.06;70.15
48622;BME280;34421;48.944;9.460;2022-12-08T10:25:43;97870.75;;;4.12;69.71
48622;BME280;34421;48.944;9.460;2022-12-08T10:28:10;97863.56;;;4.21;70.62
48622;BME280;34421;48.944;9.460;2022-12-08T10:30:35;97868.16;;;4.33;71.02
48622;BME280;34421;48.944;9.460;2022-12-08T10:33:01;97855.53;;;4.44;69.98
48622;BME280;34421;48.944;9.460;2022-12-08T10:35:43;97867.59;;;4.53;69.52
48622;BME280;34421;48.944;9.460;2022-12-08T10:38:31;97858.72;;;4.61;68.80
48622;BME280;34421;48.944;9.460;2022-12-08T10:41:03;97855.16;;;4.68;68.48
48622;BME280;34421;48.944;9.460;2022-12-08T10:43:31;97852.03;;;4.79;67.93
48622;BME280;34421;48.944;9.460;2022-12-08T10:46:11;97841.97;;;4.90;68.46
48622;BME280;34421;48.944;9.460;2022-12-08T10:48:46;97843.91;;;5.02;67.61
48622;BME280;34421;48.944;9.460;2022-12-08T10:51:26;97846.44;;;5.17;68.13
48622;BME280;34421;48.944;9.460;2022-12-08T10:53:52;97842.31;;;5.30;67.56
48622;BME280;34421;48.944;9.460;2022-12-08T10:56:17;97842.94;;;5.38;67.27
48622;BME280;34421;48.944;9.460;2022-12-08T10:58:45;97839.19;;;5.47;67.39
48622;BME280;34421;48.944;9.460;2022-12-08T11:03:48;97832.34;;;5.60;67.04
48622;BME280;34421;48.944;9.460;2022-12-08T11:06:19;97831.53;;;5.59;65.90
48622;BME280;34421;48.944;9.460;2022-12-08T11:08:48;97830.69;;;5.59;66.63
48622;BME280;34421;48.944;9.460;2022-12-08T11:11:15;97824.44;;;5.60;65.57
48622;BME280;34421;48.944;9.460;2022-12-08T11:13:41;97822.84;;;5.65;66.02
48622;BME280;34421;48.944;9.460;2022-12-08T11:16:07;97811.88;;;5.68;65.62
48622;BME280;34421;48.944;9.460;2022-12-08T11:21:16;97805.97;;;5.66;65.67
48622;BME280;34421;48.944;9.460;2022-12-08T11:23:46;97797.66;;;5.69;65.26
48622;BME280;34421;48.944;9.460;2022-12-08T11:26:30;97800.72;;;5.73;66.62
48622;BME280;34421;48.944;9.460;2022-12-08T11:28:57;97795.44;;;5.73;66.17
48622;BME280;34421;48.944;9.460;2022-12-08T11:31:29;97795.84;;;5.77;65.90
48622;BME280;34421;48.944;9.460;2022-12-08T11:33:56;97788.78;;;5.77;65.02
48622;BME280;34421;48.944;9.460;2022-12-08T11:36:25;97796.88;;;5.76;65.58
48622;BME280;34421;48.944;9.460;2022-12-08T11:38:55;97788.78;;;5.77;65.45
48622;BME280;34421;48.944;9.460;2022-12-08T11:41:24;97791.44;;;5.84;66.08
48622;BME280;34421;48.944;9.460;2022-12-08T11:44:15;97787.19;;;5.89;65.88
48622;BME280;34421;48.944;9.460;2022-12-08T11:46:51;97788.00;;;5.90;65.48
48622;BME280;34421;48.944;9.460;2022-12-08T11:49:18;97783.13;;;5.87;65.17
48622;BME280;34421;48.944;9.460;2022-12-08T11:51:56;97787.59;;;5.86;65.55
48622;BME280;34421;48.944;9.460;2022-12-08T11:54:34;97780.88;;;5.90;64.64
48622;BME280;34421;48.944;9.460;2022-12-08T11:57:02;97780.94;;;5.97;63.93
48622;BME280;34421;48.944;9.460;2022-12-08T11:59:32;97778.53;;;6.02;64.05
48622;BME280;34421;48.944;9.460;2022-12-08T12:02:00;97780.59;;;6.07;64.33
48622;BME280;34421;48.944;9.460;2022-12-08T12:04:38;97773.66;;;6.12;63.79
48622;BME280;34421;48.944;9.460;2022-12-08T12:20:45;97772.28;;;6.16;62.49
48622;BME280;34421;48.944;9.460;2022-12-08T12:23:23;97768.22;;;6.21;62.20
48622;BME280;34421;48.944;9.460;2022-12-08T12:26:02;97766.81;;;6.25;61.83
48622;BME280;34421;48.944;9.460;2022-12-08T12:31:05;97764.38;;;6.30;62.62
48622;BME280;34421;48.944;9.460;2022-12-08T12:33:33;97766.41;;;6.28;61.69
48622;BME280;34421;48.944;9.460;2022-12-08T12:36:02;97761.72;;;6.30;62.06
48622;BME280;34421;48.944;9.460;2022-12-08T12:38:32;97748.09;;;6.33;61.82
48622;BME280;34421;48.944;9.460;2022-12-08T12:41:24;97756.03;;;6.33;61.72
48622;BME280;34421;48.944;9.460;2022-12-08T12:44:35;97753.19;;;6.34;62.03
48622;BME280;34421;48.944;9.460;2022-12-08T12:47:03;97750.56;;;6.34;62.16
48622;BME280;34421;48.944;9.460;2022-12-08T13:05:08;97737.97;;;6.43;61.45
48622;BME280;34421;48.944;9.460;2022-12-08T13:07:42;97727.78;;;6.47;60.99
48622;BME280;34421;48.944;9.460;2022-12-08T13:12:39;97726.97;;;6.46;61.71
48622;BME280;34421;48.944;9.460;2022-12-08T13:15:06;97721.69;;;6.46;61.41
48622;BME280;34421;48.944;9.460;2022-12-08T13:17:43;97722.28;;;6.48;61.85
48622;BME280;34421;48.944;9.460;2022-12-08T13:20:18;97718.41;;;6.51;60.74
48622;BME280;34421;48.944;9.460;2022-12-08T13:25:43;97715.19;;;6.49;61.34
48622;BME280;34421;48.944;9.460;2022-12-08T13:28:21;97714.34;;;6.48;60.71
48622;BME280;34421;48.944;9.460;2022-12-08T13:30:48;97708.88;;;6.43;61.43
48622;BME280;34421;48.944;9.460;2022-12-08T13:33:25;97708.25;;;6.41;60.34
48622;BME280;34421;48.944;9.460;2022-12-08T13:36:09;97709.69;;;6.44;60.96
48622;BME280;34421;48.944;9.460;2022-12-08T13:38:37;97710.31;;;6.46;60.41
48622;BME280;34421;48.944;9.460;2022-12-08T13:41:08;97713.13;;;6.44;60.80
48622;BME280;34421;48.944;9.460;2022-12-08T13:44:11;97705.81;;;6.39;60.77
48622;BME280;34421;48.944;9.460;2022-12-08T13:46:43;97705.59;;;6.41;59.80
48622;BME280;34421;48.944;9.460;2022-12-08T13:49:15;97713.53;;;6.41;60.12
48622;BME280;34421;48.944;9.460;2022-12-08T13:51:45;97712.50;;;6.42;61.03
48622;BME280;34421;48.944;9.460;2022-12-08T13:54:18;97704.59;;;6.35;61.05
48622;BME280;34421;48.944;9.460;2022-12-08T13:56:46;97708.66;;;6.38;61.05
48622;BME280;34421;48.944;9.460;2022-12-08T14:01:44;97706.22;;;6.43;60.08
48622;BME280;34421;48.944;9.460;2022-12-08T14:04:20;97706.22;;;6.43;59.95
48622;BME280;34421;48.944;9.460;2022-12-08T14:06:52;97700.91;;;6.36;60.06
48622;BME280;34421;48.944;9.460;2022-12-08T14:09:21;97705.78;;;6.33;59.86
48622;BME280;34421;48.944;9.460;2022-12-08T14:11:59;97703.16;;;6.33;61.03
48622;BME280;34421;48.944;9.460;2022-12-08T14:14:40;97706.81;;;6.32;61.21
48622;BME280;34421;48.944;9.460;2022-12-08T14:17:10;97709.47;;;6.32;60.02
48622;BME280;34421;48.944;9.460;2022-12-08T14:19:36;97704.38;;;6.30;60.67
48622;BME280;34421;48.944;9.460;2022-12-08T14:24:36;97696.03;;;6.27;60.10
48622;BME280;34421;48.944;9.460;2022-12-08T14:27:03;97695.44;;;6.25;60.18
48622;BME280;34421;48.944;9.460;2022-12-08T14:32:01;97704.59;;;6.22;60.96
48622;BME280;34421;48.944;9.460;2022-12-08T14:34:26;97705.78;;;6.20;60.23
48622;BME280;34421;48.944;9.460;2022-12-08T14:36:52;97698.25;;;6.16;62.05
48622;BME280;34421;48.944;9.460;2022-12-08T14:39:19;97701.31;;;6.13;61.19
48622;BME280;34421;48.944;9.460;2022-12-08T14:42:01;97703.34;;;6.11;61.12
48622;BME280;34421;48.944;9.460;2022-12-08T14:44:30;97700.69;;;6.05;61.46
48622;BME280;34421;48.944;9.460;2022-12-08T14:47:08;97709.00;;;6.02;61.54
48622;BME280;34421;48.944;9.460;2022-12-08T14:49:37;97715.09;;;6.02;61.57
48622;BME280;34421;48.944;9.460;2022-12-08T14:52:08;97712.47;;;6.02;61.39
48622;BME280;34421;48.944;9.460;2022-12-08T14:54:35;97713.47;;;6.01;60.94
48622;BME280;34421;48.944;9.460;2022-12-08T14:57:01;97716.31;;;6.00;61.25
48622;BME280;34421;48.944;9.460;2022-12-08T14:59:30;97713.88;;;5.98;61.64
48622;BME280;34421;48.944;9.460;2022-12-08T15:04:42;97710.19;;;5.92;62.47
48622;BME280;34421;48.944;9.460;2022-12-08T15:07:13;97707.72;;;5.91;61.28